createdAt,value
2019-04-25T00:02:05.646Z,63.07
2019-04-25T00:04:35.126Z,63.55
2019-04-25T00:07:04.646Z,62.95
2019-04-25T00:09:37.526Z,63.33
2019-04-25T00:12:07.396Z,63.06
2019-04-25T00:14:38.003Z,63.22
2019-04-25T00:17:07.632Z,62.56
2019-04-25T00:19:37.018Z,63.24
2019-04-25T00:22:13.880Z,62.28
2019-04-25T00:24:52.041Z,61.97
2019-04-25T00:27:23.761Z,61.07
2019-04-25T00:29:53.378Z,62.46
2019-04-25T00:32:23.177Z,62.16
2019-04-25T00:34:52.854Z,61.49
2019-04-25T00:37:22.609Z,61.81
2019-04-25T00:39:52.098Z,62.95
2019-04-25T00:42:23.125Z,63.47
2019-04-25T00:44:52.637Z,63.78
2019-04-25T00:47:22.276Z,62.99
2019-04-25T00:49:52.407Z,63.90
2019-04-25T00:52:22.876Z,64.57
2019-04-25T00:54:53.463Z,63.12
2019-04-25T00:57:23.520Z,62.37
2019-04-25T00:59:57.242Z,63.51
2019-04-25T01:02:37.213Z,65.71
2019-04-25T01:05:07.628Z,66.35
2019-04-25T01:07:37.098Z,67.11
2019-04-25T01:10:08.555Z,67.90
2019-04-25T01:12:37.950Z,67.59
2019-04-25T01:15:09.412Z,67.38
2019-04-25T01:17:38.872Z,66.73
2019-04-25T01:20:08.861Z,68.22
2019-04-25T01:22:38.255Z,68.18
2019-04-25T01:25:09.679Z,67.93
2019-04-25T01:27:39.229Z,69.85
2019-04-25T01:30:09.833Z,70.24
2019-04-25T01:32:39.276Z,70.53
2019-04-25T01:35:27.056Z,72.71
2019-04-25T01:37:58.082Z,73.02
2019-04-25T01:40:29.272Z,73.54
2019-04-25T01:43:00.444Z,71.36
2019-04-25T01:45:33.838Z,71.68
2019-04-25T01:48:03.580Z,71.35
2019-04-25T01:50:35.265Z,72.74
2019-04-25T01:53:05.060Z,71.83
2019-04-25T01:55:35.733Z,72.70
2019-04-25T01:58:07.200Z,69.81
2019-04-25T02:00:47.578Z,70.25
2019-04-25T02:03:17.145Z,69.17
2019-04-25T02:05:46.531Z,66.04
2019-04-25T02:08:16.019Z,65.95
2019-04-25T02:10:47.042Z,65.51
2019-04-25T02:13:20.840Z,67.88
2019-04-25T02:15:50.666Z,69.93
2019-04-25T02:18:20.887Z,70.66
2019-04-25T02:20:51.549Z,70.37
2019-04-25T02:23:21.705Z,70.18
2019-04-25T02:26:04.625Z,70.52
2019-04-25T02:28:23.999Z,70.85
2019-04-25T02:30:57.367Z,71.66
2019-04-25T02:33:24.739Z,70.09
2019-04-25T02:35:57.864Z,70.39
2019-04-25T02:38:29.141Z,72.20
2019-04-25T02:41:01.986Z,73.29
2019-04-25T02:43:31.336Z,73.45
2019-04-25T02:46:11.888Z,71.48
2019-04-25T02:49:02.398Z,74.53
2019-04-25T02:51:45.253Z,71.70
2019-04-25T02:54:14.973Z,67.43
2019-04-25T02:56:46.640Z,73.31
2019-04-25T02:59:15.498Z,74.44
2019-04-25T03:01:46.003Z,74.99
2019-04-25T03:04:15.385Z,74.42
2019-04-25T03:06:45.464Z,76.49
2019-04-25T03:09:15.613Z,75.15
2019-04-25T03:11:47.573Z,74.28
2019-04-25T03:14:16.302Z,75.47
2019-04-25T03:16:45.756Z,76.21
2019-04-25T03:19:16.792Z,76.12
2019-04-25T03:21:51.158Z,75.13
2019-04-25T03:24:20.621Z,72.47
2019-04-25T03:26:50.539Z,71.14
2019-04-25T03:29:21.802Z,69.88
2019-04-25T03:31:52.333Z,71.55
2019-04-25T03:34:25.081Z,72.91
2019-04-25T03:36:54.053Z,73.01
2019-04-25T03:39:27.061Z,69.62
2019-04-25T03:41:56.513Z,72.65
2019-04-25T03:44:25.922Z,73.52
2019-04-25T03:46:55.312Z,74.58
2019-04-25T03:49:25.090Z,75.25
2019-04-25T03:51:54.555Z,76.48
2019-04-25T03:54:23.945Z,76.71
2019-04-25T03:56:55.605Z,75.42
2019-04-25T03:59:24.447Z,75.70
2019-04-25T04:01:54.293Z,74.96
2019-04-25T04:04:23.882Z,75.27
2019-04-25T04:06:53.873Z,75.03
2019-04-25T04:09:24.173Z,74.78
2019-04-25T04:11:53.996Z,74.06
2019-04-25T04:14:24.228Z,74.27
2019-04-25T04:17:14.698Z,74.31
2019-04-25T04:22:45.716Z,75.04
2019-04-25T04:25:16.763Z,74.66
2019-04-25T04:27:46.162Z,72.90
2019-04-25T04:30:16.495Z,75.65
2019-04-25T04:32:46.846Z,75.75
2019-04-25T04:35:17.480Z,74.86
2019-04-25T04:37:47.019Z,75.74
2019-04-25T04:40:18.277Z,74.39
2019-04-25T04:42:47.523Z,73.80
2019-04-25T04:45:16.995Z,76.75
2019-04-25T04:47:46.390Z,77.49
2019-04-25T04:50:16.620Z,77.03
2019-04-25T04:52:46.193Z,76.22
2019-04-25T04:55:17.223Z,72.09
2019-04-25T04:57:46.673Z,76.43
2019-04-25T05:00:16.847Z,74.92
2019-04-25T05:02:50.363Z,74.21
2019-04-25T05:05:23.152Z,72.96
2019-04-25T05:07:54.194Z,72.19
2019-04-25T05:10:24.563Z,73.82
2019-04-25T05:12:54.062Z,73.82
2019-04-25T05:15:24.828Z,73.10
2019-04-25T05:17:54.431Z,72.74
2019-04-25T05:20:24.286Z,71.96
2019-04-25T05:22:54.914Z,70.17
2019-04-25T05:25:24.896Z,69.25
2019-04-25T05:28:02.883Z,70.40
2019-04-25T05:30:40.303Z,69.86
2019-04-25T05:33:09.708Z,68.38
2019-04-25T05:35:39.098Z,65.50
2019-04-25T05:38:08.488Z,66.47
2019-04-25T05:40:39.532Z,66.45
2019-04-25T05:43:10.627Z,66.10
2019-04-25T05:45:40.084Z,67.87
2019-04-25T05:48:09.472Z,66.43
2019-04-25T05:50:38.886Z,66.36
2019-04-25T05:53:08.308Z,65.40
2019-04-25T05:55:37.695Z,64.28
2019-04-25T05:58:07.099Z,63.95
2019-04-25T06:00:36.481Z,61.00
2019-04-25T06:03:05.883Z,63.39
2019-04-25T06:05:35.343Z,57.68
2019-04-25T06:08:05.039Z,58.56
2019-04-25T06:10:36.623Z,58.91
2019-04-25T06:13:13.778Z,58.91
2019-04-25T06:15:45.057Z,55.88
2019-04-25T06:18:16.079Z,51.15
2019-04-25T06:20:45.754Z,52.42
2019-04-25T06:23:16.855Z,52.90
2019-04-25T06:25:46.375Z,52.59
2019-04-25T06:28:23.999Z,53.06
2019-04-25T06:30:54.233Z,50.84
2019-04-25T06:33:24.676Z,50.57
2019-04-25T06:35:56.759Z,50.57
2019-04-25T06:38:27.252Z,50.48
2019-04-25T06:40:57.224Z,50.83
2019-04-25T06:43:26.782Z,49.07
2019-04-25T06:46:14.206Z,50.65
2019-04-25T06:48:45.688Z,50.61
2019-04-25T06:51:15.071Z,51.74
2019-04-25T06:53:44.455Z,50.86
2019-04-25T06:56:13.912Z,49.56
2019-04-25T06:58:44.286Z,49.65
2019-04-25T07:01:13.728Z,49.04
2019-04-25T07:03:44.197Z,47.06
2019-04-25T07:06:15.125Z,45.01
2019-04-25T07:08:44.937Z,42.76
2019-04-25T07:11:14.475Z,40.59
2019-04-25T07:13:44.003Z,41.43
2019-04-25T07:16:13.564Z,39.28
2019-04-25T07:18:43.572Z,40.00
2019-04-25T07:21:14.292Z,36.92
2019-04-25T07:23:46.285Z,39.62
2019-04-25T07:26:17.384Z,39.54
2019-04-25T07:28:57.497Z,41.33
2019-04-25T07:31:33.140Z,39.48
2019-04-25T07:34:04.257Z,40.91
2019-04-25T07:36:35.101Z,40.80
2019-04-25T07:39:10.521Z,41.63
2019-04-25T07:41:39.703Z,39.98
2019-04-25T07:44:09.083Z,39.21
2019-04-25T07:46:39.948Z,38.18
2019-04-25T07:49:10.309Z,39.84
2019-04-25T07:51:39.949Z,38.70
2019-04-25T07:54:09.339Z,39.87
2019-04-25T07:56:38.866Z,39.20
2019-04-25T07:59:08.640Z,38.82
2019-04-25T08:01:39.087Z,40.61
2019-04-25T08:04:08.543Z,39.47
2019-04-25T08:06:38.059Z,38.74
2019-04-25T08:09:10.960Z,37.43
2019-04-25T08:11:40.760Z,37.83
2019-04-25T08:14:21.779Z,37.31
2019-04-25T08:17:07.867Z,38.08
2019-04-25T08:19:37.958Z,36.53
2019-04-25T08:22:07.481Z,35.38
2019-04-25T08:24:37.852Z,36.56
2019-04-25T08:27:07.483Z,33.40
2019-04-25T08:29:39.213Z,35.43
2019-04-25T08:32:08.096Z,34.05
2019-04-25T08:34:38.537Z,35.47
2019-04-25T08:37:18.130Z,34.55
2019-04-25T08:39:41.815Z,33.70
2019-04-25T08:42:11.198Z,32.11
2019-04-25T08:44:41.352Z,32.36
2019-04-25T08:47:10.855Z,28.57
2019-04-25T08:49:44.126Z,29.92
2019-04-25T08:52:13.291Z,29.37
2019-04-25T08:54:47.176Z,29.23
2019-04-25T08:57:19.707Z,29.38
2019-04-25T08:59:55.597Z,29.58
2019-04-25T09:02:38.947Z,25.99
2019-04-25T09:05:24.394Z,25.85
2019-04-25T09:07:54.385Z,27.89
2019-04-25T09:10:24.303Z,28.25
2019-04-25T09:12:53.891Z,29.72
2019-04-25T09:15:24.202Z,24.87
2019-04-25T09:17:54.902Z,24.87
2019-04-25T09:20:24.521Z,24.42
2019-04-25T09:22:54.377Z,26.66
2019-04-25T09:25:24.208Z,26.88
2019-04-25T09:27:54.374Z,26.88
2019-04-25T09:30:24.256Z,24.22
2019-04-25T09:32:53.758Z,23.62
2019-04-25T09:35:23.739Z,24.70
2019-04-25T09:37:54.244Z,25.00
2019-04-25T09:40:24.124Z,25.48
2019-04-25T09:42:53.882Z,24.88
2019-04-25T09:45:41.556Z,25.03
2019-04-25T09:48:13.282Z,24.93
2019-04-25T09:50:45.421Z,24.37
2019-04-25T09:53:23.617Z,23.29
2019-04-25T09:55:54.152Z,23.03
2019-04-25T09:58:28.548Z,23.18
2019-04-25T10:01:13.772Z,22.55
2019-04-25T10:03:45.413Z,22.61
2019-04-25T10:06:17.910Z,23.32
2019-04-25T10:08:47.533Z,22.89
2019-04-25T10:11:17.508Z,23.32
2019-04-25T10:14:08.345Z,23.45
2019-04-25T10:16:37.956Z,22.01
2019-04-25T10:19:08.431Z,21.49
2019-04-25T10:21:38.075Z,21.57
2019-04-25T10:24:07.557Z,22.38
2019-04-25T10:26:38.592Z,26.97
2019-04-25T10:29:09.247Z,23.73
2019-04-25T10:31:38.804Z,22.70
2019-04-25T10:34:08.265Z,22.70
2019-04-25T10:36:39.884Z,23.96
2019-04-25T10:39:11.121Z,24.63
2019-04-25T10:41:41.395Z,22.33
2019-04-25T10:44:14.007Z,22.50
2019-04-25T10:46:46.843Z,24.11
2019-04-25T10:49:14.619Z,22.28
2019-04-25T10:51:45.806Z,25.00
2019-04-25T10:54:15.275Z,22.36
2019-04-25T10:56:46.867Z,22.27
2019-04-25T10:59:15.877Z,20.10
2019-04-25T11:01:46.374Z,20.34
2019-04-25T11:04:20.321Z,22.22
2019-04-25T11:06:49.789Z,17.76
2019-04-25T11:09:21.745Z,20.56
2019-04-25T11:11:51.208Z,23.20
2019-04-25T11:14:20.734Z,20.15
2019-04-25T11:16:50.438Z,18.57
2019-04-25T11:19:19.941Z,21.27
2019-04-25T11:21:49.457Z,19.80
2019-04-25T11:24:19.120Z,16.77
2019-04-25T11:26:50.455Z,17.65
2019-04-25T11:29:19.767Z,16.98
2019-04-25T11:31:49.397Z,21.53
2019-04-25T11:34:19.024Z,20.96
2019-04-25T11:36:48.511Z,19.50
2019-04-25T11:39:36.838Z,19.50
2019-04-25T11:42:08.143Z,20.40
2019-04-25T11:44:38.056Z,21.16
2019-04-25T11:47:08.662Z,20.95
2019-04-25T11:49:38.789Z,19.97
2019-04-25T11:52:09.111Z,19.58
2019-04-25T11:54:39.287Z,16.04
2019-04-25T11:57:09.074Z,18.48
2019-04-25T11:59:39.105Z,17.65
2019-04-25T12:02:10.816Z,18.49
2019-04-25T12:04:39.482Z,21.21
2019-04-25T12:07:09.758Z,21.50
2019-04-25T12:09:39.237Z,19.23
2019-04-25T12:12:08.715Z,18.46
2019-04-25T12:14:38.592Z,18.93
2019-04-25T12:17:08.925Z,19.96
2019-04-25T12:19:39.084Z,18.62
2019-04-25T12:22:09.323Z,19.31
2019-04-25T12:24:39.424Z,20.48
2019-04-25T12:27:09.307Z,20.21
2019-04-25T12:29:39.280Z,20.24
2019-04-25T12:32:09.608Z,20.36
2019-04-25T12:34:39.313Z,24.23
2019-04-25T12:37:09.435Z,22.30
2019-04-25T12:39:39.458Z,20.17
2019-04-25T12:42:09.709Z,18.90
2019-04-25T12:44:46.255Z,18.26
2019-04-25T12:47:16.782Z,17.74
2019-04-25T12:49:46.723Z,18.91
2019-04-25T12:52:16.128Z,17.51
2019-04-25T12:54:45.526Z,17.72
2019-04-25T12:57:16.155Z,16.30
2019-04-25T12:59:46.200Z,17.20
2019-04-25T13:02:16.982Z,17.65
2019-04-25T13:04:47.621Z,16.96
2019-04-25T13:07:18.145Z,17.83
2019-04-25T13:09:48.319Z,20.97
2019-04-25T13:12:19.997Z,18.46
2019-04-25T13:14:49.626Z,19.57
2019-04-25T13:17:19.031Z,18.75
2019-04-25T13:19:48.526Z,19.30
2019-04-25T13:22:17.885Z,19.77
2019-04-25T13:24:47.350Z,18.85
2019-04-25T13:27:34.359Z,18.48
2019-04-25T13:30:24.143Z,19.92
2019-04-25T13:32:55.546Z,20.35
2019-04-25T13:35:34.343Z,20.19
2019-04-25T13:38:03.868Z,20.13
2019-04-25T13:40:33.328Z,19.91
2019-04-25T13:43:04.558Z,20.50
2019-04-25T13:45:33.958Z,18.36
2019-04-25T13:48:04.905Z,19.01
2019-04-25T13:50:34.751Z,19.83
2019-04-25T13:53:04.155Z,18.63
2019-04-25T13:55:34.506Z,19.05
2019-04-25T13:58:04.338Z,18.81
2019-04-25T14:00:34.868Z,19.17
2019-04-25T14:03:04.572Z,19.25
2019-04-25T14:05:35.339Z,20.23
2019-04-25T14:08:04.854Z,19.75
2019-04-25T14:10:34.477Z,18.75
2019-04-25T14:13:04.348Z,20.30
2019-04-25T14:15:35.152Z,18.97
2019-04-25T14:18:22.896Z,18.75
2019-04-25T14:20:54.013Z,20.06
2019-04-25T14:23:24.525Z,19.09
2019-04-25T14:25:54.822Z,19.29
2019-04-25T14:28:25.245Z,21.49
2019-04-25T14:30:55.421Z,19.49
2019-04-25T14:33:26.586Z,19.86
2019-04-25T14:35:55.978Z,19.47
2019-04-25T14:38:26.544Z,19.47
2019-04-25T14:40:57.000Z,20.50
2019-04-25T14:43:26.416Z,20.59
2019-04-25T14:45:56.373Z,20.75
2019-04-25T14:48:25.852Z,20.03
2019-04-25T14:50:55.347Z,19.13
2019-04-25T14:53:25.753Z,19.90
2019-04-25T14:55:56.831Z,19.96
2019-04-25T14:58:28.198Z,19.36
2019-04-25T15:00:57.705Z,20.79
2019-04-25T15:03:27.178Z,20.13
2019-04-25T15:05:56.572Z,20.31
2019-04-25T15:08:26.562Z,21.22
2019-04-25T15:10:57.010Z,21.97
2019-04-25T15:13:26.407Z,20.80
2019-04-25T15:15:56.989Z,21.24
2019-04-25T15:18:26.943Z,20.51
2019-04-25T15:20:57.192Z,20.73
2019-04-25T15:23:27.320Z,20.73
2019-04-25T15:25:56.821Z,21.17
2019-04-25T15:28:26.208Z,21.25
2019-04-25T15:30:55.613Z,21.06
2019-04-25T15:33:26.408Z,21.03
2019-04-25T15:36:03.712Z,22.08
2019-04-25T15:38:40.803Z,21.35
2019-04-25T15:41:14.798Z,22.12
2019-04-25T15:43:49.591Z,21.98
2019-04-25T15:46:20.754Z,21.33
2019-04-25T15:48:50.160Z,22.22
2019-04-25T15:51:19.551Z,22.36
2019-04-25T15:53:48.940Z,22.61
2019-04-25T15:56:18.414Z,22.92
2019-04-25T15:58:47.873Z,23.42
2019-04-25T16:01:17.344Z,23.76
2019-04-25T16:03:46.731Z,23.49
2019-04-25T16:06:16.194Z,23.64
2019-04-25T16:08:45.929Z,24.12
2019-04-25T16:11:15.377Z,24.00
2019-04-25T16:13:45.438Z,24.01
2019-04-25T16:16:15.397Z,24.15
2019-04-25T16:18:45.384Z,24.83
2019-04-25T16:21:15.579Z,24.31
2019-04-25T16:23:45.525Z,24.78
2019-04-25T16:26:15.355Z,25.38
2019-04-25T16:28:45.374Z,26.35
2019-04-25T16:31:17.033Z,25.08
2019-04-25T16:33:46.416Z,26.18
2019-04-25T16:36:15.823Z,26.33
2019-04-25T16:38:45.475Z,26.56
2019-04-25T16:41:15.530Z,26.60
2019-04-25T16:43:52.804Z,26.72
2019-04-25T16:46:23.082Z,26.65
2019-04-25T16:48:52.534Z,27.27
2019-04-25T16:51:22.200Z,27.53
2019-04-25T16:53:51.727Z,26.76
2019-04-25T16:56:21.177Z,27.38
2019-04-25T16:58:51.535Z,26.87
2019-04-25T17:01:21.089Z,27.16
2019-04-25T17:03:50.542Z,27.38
2019-04-25T17:06:19.922Z,27.23
2019-04-25T17:08:49.306Z,28.19
2019-04-25T17:11:18.971Z,28.10
2019-04-25T17:13:49.995Z,28.46
2019-04-25T17:16:21.009Z,28.58
2019-04-25T17:18:54.930Z,28.97
2019-04-25T17:21:24.540Z,28.89
2019-04-25T17:23:54.016Z,29.96
2019-04-25T17:26:24.237Z,29.96
2019-04-25T17:28:55.397Z,29.92
2019-04-25T17:31:43.434Z,29.82
2019-04-25T17:34:17.050Z,30.08
2019-04-25T17:36:51.027Z,29.88
2019-04-25T17:39:31.140Z,30.01
2019-04-25T17:42:01.523Z,29.92
2019-04-25T17:44:31.638Z,31.15
2019-04-25T17:47:06.460Z,32.19
2019-04-25T17:49:33.016Z,33.93
2019-04-25T17:52:02.403Z,35.58
2019-04-25T17:54:32.756Z,35.97
2019-04-25T17:57:02.445Z,36.18
2019-04-25T17:59:32.320Z,36.80
2019-04-25T18:02:03.088Z,37.75
2019-04-25T18:04:34.037Z,39.35
2019-04-25T18:07:04.715Z,40.02
2019-04-25T18:09:34.450Z,42.05
2019-04-25T18:12:05.177Z,41.07
2019-04-25T18:14:35.214Z,41.76
2019-04-25T18:17:04.942Z,42.55
2019-04-25T18:19:36.414Z,42.69
2019-04-25T18:22:07.405Z,43.58
2019-04-25T18:24:54.701Z,43.74
2019-04-25T18:27:37.769Z,44.21
2019-04-25T18:30:07.770Z,45.40
2019-04-25T18:32:39.150Z,44.65
2019-04-25T18:35:10.308Z,44.74
2019-04-25T18:37:48.620Z,44.27
2019-04-25T18:40:19.981Z,42.95
2019-04-25T18:42:51.016Z,42.95
2019-04-25T18:45:27.651Z,43.76
2019-04-25T18:47:57.041Z,43.31
2019-04-25T18:50:28.124Z,44.27
2019-04-25T18:53:17.514Z,42.65
2019-04-25T18:55:48.668Z,42.89
2019-04-25T18:58:35.676Z,41.76
2019-04-25T19:01:13.072Z,38.82
2019-04-25T19:03:49.903Z,38.93
2019-04-25T19:06:21.538Z,36.88
2019-04-25T19:08:53.234Z,38.60
2019-04-25T19:11:22.485Z,37.54
2019-04-25T19:13:51.941Z,37.07
2019-04-25T19:16:21.333Z,37.61
2019-04-25T19:18:51.600Z,37.23
2019-04-25T19:21:21.607Z,37.42
2019-04-25T19:23:51.512Z,36.04
2019-04-25T19:26:21.985Z,37.09
2019-04-25T19:28:52.032Z,36.79
2019-04-25T19:31:22.352Z,38.53
2019-04-25T19:33:52.586Z,37.95
2019-04-25T19:36:23.004Z,42.45
2019-04-25T19:38:53.058Z,44.44
2019-04-25T19:41:27.919Z,43.76
2019-04-25T19:43:59.294Z,45.02
2019-04-25T19:46:39.079Z,45.52
2019-04-25T19:49:08.897Z,44.68
2019-04-25T19:51:39.742Z,44.95
2019-04-25T19:54:09.125Z,43.27
2019-04-25T19:56:38.578Z,44.31
2019-04-25T19:59:08.113Z,45.84
2019-04-25T20:01:37.561Z,45.45
2019-04-25T20:04:14.539Z,46.45
2019-04-25T20:07:02.265Z,44.43
2019-04-25T20:09:49.409Z,44.47
2019-04-25T20:12:19.363Z,40.25
2019-04-25T20:14:49.219Z,40.36
2019-04-25T20:17:18.609Z,42.52
2019-04-25T20:19:48.457Z,39.74
2019-04-25T20:22:18.565Z,39.04
2019-04-25T20:24:48.886Z,38.11
2019-04-25T20:27:18.551Z,37.59
2019-04-25T20:29:48.586Z,37.29
2019-04-25T20:32:18.747Z,38.77
2019-04-25T20:34:49.049Z,39.85
2019-04-25T20:37:18.870Z,39.42
2019-04-25T20:39:49.417Z,39.19
2019-04-25T20:42:18.877Z,39.08
2019-04-25T20:44:49.611Z,39.93
2019-04-25T20:47:19.957Z,40.59
2019-04-25T20:49:49.368Z,39.47
2019-04-25T20:52:18.991Z,41.16
2019-04-25T20:54:49.350Z,40.78
2019-04-25T20:57:19.023Z,39.46
2019-04-25T20:59:49.345Z,39.15
2019-04-25T21:02:19.160Z,39.95
2019-04-25T21:04:50.063Z,39.74
2019-04-25T21:07:19.453Z,39.95
2019-04-25T21:09:49.929Z,40.91
2019-04-25T21:12:19.455Z,40.77
2019-04-25T21:14:59.570Z,40.55
2019-04-25T21:17:36.617Z,43.76
2019-04-25T21:20:11.221Z,41.59
2019-04-25T21:22:41.862Z,40.48
2019-04-25T21:25:11.403Z,41.46
2019-04-25T21:27:40.877Z,42.60
2019-04-25T21:30:11.386Z,40.88
2019-04-25T21:32:53.667Z,40.90
2019-04-25T21:35:23.924Z,40.88
2019-04-25T21:37:53.600Z,40.90
2019-04-25T21:40:27.289Z,42.37
2019-04-25T21:43:01.086Z,44.13
2019-04-25T21:45:30.744Z,45.47
2019-04-25T21:48:00.789Z,46.12
2019-04-25T21:50:31.357Z,45.76
2019-04-25T21:53:01.301Z,43.41
2019-04-25T21:55:31.053Z,43.86
2019-04-25T21:58:00.606Z,41.57
2019-04-25T22:00:37.393Z,42.66
2019-04-25T22:03:09.009Z,43.23
2019-04-25T22:05:38.716Z,44.56
2019-04-25T22:08:08.280Z,45.41
2019-04-25T22:10:37.656Z,44.42
2019-04-25T22:13:14.864Z,44.14
2019-04-25T22:15:38.427Z,44.43
2019-04-25T22:18:08.013Z,42.06
2019-04-25T22:20:37.451Z,43.41
2019-04-25T22:23:07.183Z,43.65
2019-04-25T22:25:36.907Z,44.07
2019-04-25T22:28:07.553Z,43.25
2019-04-25T22:30:37.671Z,42.20
2019-04-25T22:33:14.664Z,45.45
2019-04-25T22:35:48.650Z,46.36
2019-04-25T22:38:18.316Z,43.57
2019-04-25T22:40:47.775Z,44.12
2019-04-25T22:43:17.312Z,44.54
2019-04-25T22:45:46.879Z,45.93
2019-04-25T22:48:17.909Z,49.17
2019-04-25T22:50:47.466Z,49.78
2019-04-25T22:53:22.717Z,50.94
2019-04-25T22:55:48.901Z,50.21
2019-04-25T22:58:18.359Z,50.05
2019-04-25T23:00:47.814Z,50.94
2019-04-25T23:03:23.407Z,51.72
2019-04-25T23:05:54.490Z,51.29
2019-04-25T23:08:24.193Z,51.72
2019-04-25T23:10:53.564Z,52.29
2019-04-25T23:13:22.951Z,53.96
2019-04-25T23:15:52.429Z,54.65
2019-04-25T23:18:22.192Z,54.67
2019-04-25T23:20:51.590Z,54.50
2019-04-25T23:23:21.192Z,54.10
2019-04-25T23:25:55.787Z,55.79
2019-04-25T23:28:27.082Z,53.88
2019-04-25T23:30:58.337Z,54.55
2019-04-25T23:33:28.681Z,53.56
2019-04-25T23:35:58.350Z,53.52
2019-04-25T23:38:27.796Z,54.70
2019-04-25T23:40:57.182Z,54.91
2019-04-25T23:43:26.758Z,55.96
2019-04-25T23:45:56.312Z,56.20
2019-04-25T23:48:25.896Z,55.08
2019-04-25T23:50:55.277Z,53.60
2019-04-25T23:53:24.663Z,53.26
2019-04-25T23:55:54.126Z,53.48
2019-04-25T23:58:23.517Z,54.05
